Stations météo

réclame
Mon MeteoGroup
Stekenjokk, Suède (2102): Température de l'air & dewpoint: 19.02.2018 06:00:00 - 25.02.2018 06:00:00 (CET)Stekenjokk, Suède (2102): Vitesse du vent & gusts: 19.02.2018 06:00:00 - 25.02.2018 06:00:00 (CET)Stekenjokk, Suède (2102): Direction du vent: 19.02.2018 06:00:00 - 25.02.2018 06:00:00 (CET)
Date & Time tt [°C] td [°C] ff [km/h] ff [knt] fx [km/h] fx [knt] dd
25.02.2018 06:00:00 -20,6 -22,7 30 16 45 24 ESE
25.02.2018 05:00:00 -20,6 -22,7 35 19 46 25 SE
25.02.2018 04:00:00 -19,7 -21,7 28 15 38 21 SE
25.02.2018 03:00:00 -18,9 -20,9 35 19 42 23 ESE
25.02.2018 02:00:00 -18,4 -20,3 34 18 39 21 SE
25.02.2018 01:00:00 -18,0 -19,9 36 19 39 21 SE
25.02.2018 00:00:00 -18,2 -20,1 29 16 45 24 SE
24.02.2018 23:00:00 -18,0 -19,9 30 16 49 26 ESE
24.02.2018 22:00:00 -17,8 -19,7 47 26 57 31 ESE
24.02.2018 21:00:00 -17,7 -19,6 47 26 56 30 SE
24.02.2018 20:00:00 -17,5 -19,4 51 28 58 32 ESE
24.02.2018 19:00:00 -17,2 -19,0 50 27 55 30 SE
24.02.2018 18:00:00 -17,1 -18,9 50 27 53 28 SE
24.02.2018 17:00:00 -16,8 -18,6 46 25 53 29 ESE
24.02.2018 16:00:00 -16,4 -18,2 45 24 50 27 SE
24.02.2018 15:00:00 -16,1 -17,8 44 24 50 27 SE
24.02.2018 14:00:00 -15,7 -17,4 43 23 49 26 ESE
24.02.2018 13:00:00 -15,6 -17,3 18 10 46 25 ENE
24.02.2018 12:00:00 -15,8 -17,5 23 12 41 22 ESE
24.02.2018 11:00:00 -15,1 -16,8 16 9 31 17 ESE
24.02.2018 10:00:00 -15,2 -16,9 21 11 34 18 ESE
24.02.2018 09:00:00 -15,1 -16,8 29 16 34 18 ESE
24.02.2018 08:00:00 -15,1 -16,8 19 10 26 14 SE
24.02.2018 07:00:00 -15,0 -16,5 24 13 30 16 SE
24.02.2018 06:00:00 -15,0 -16,5 28 15 33 18 SSE
24.02.2018 05:00:00 -14,9 -16,4 28 15 33 18 S
24.02.2018 04:00:00 -14,9 -16,4 27 15 34 19 S
24.02.2018 03:00:00 -15,0 -16,5 30 16 38 20 S
24.02.2018 02:00:00 -15,1 -16,8 31 17 41 22 S
24.02.2018 01:00:00 -15,1 -16,8 35 19 41 22 S
24.02.2018 00:00:00 -15,1 -16,8 32 17 40 22 SSE
23.02.2018 23:00:00 -15,0 -16,5 32 18 40 22 SSE
23.02.2018 22:00:00 -15,0 -16,5 34 19 44 24 SSE
23.02.2018 21:00:00 -14,8 -16,3 38 20 45 25 SSE
23.02.2018 20:00:00 -14,7 -16,2 37 20 48 26 SSE
23.02.2018 19:00:00 -14,6 -16,1 42 23 46 25 SSE
23.02.2018 18:00:00 -14,4 -15,9 37 20 45 24 SE
23.02.2018 17:00:00 -14,1 -15,7 39 21 45 24 SE
23.02.2018 16:00:00 -13,7 -15,1 38 20 44 24 SE
23.02.2018 15:00:00 -13,4 -14,8 39 21 45 24 SE
23.02.2018 14:00:00 -13,2 -14,6 40 22 46 25 SE
23.02.2018 13:00:00 -13,1 -14,5 40 22 45 24 SE
23.02.2018 12:00:00 -13,3 -14,7 35 19 42 23 SE
23.02.2018 11:00:00 -13,7 -15,1 39 21 43 23 SE
23.02.2018 10:00:00 -14,0 -15,6 37 20 41 22 SE
23.02.2018 09:00:00 -14,0 -15,6 32 18 39 21 SE
23.02.2018 08:00:00 -13,9 -15,3 32 17 36 20 ESE
23.02.2018 07:00:00 -13,9 -15,3 25 14 41 22 SE
23.02.2018 06:00:00 -13,8 -15,2 33 18 38 20 ESE
23.02.2018 05:00:00 -13,6 -15,0 28 15 41 22 ESE
23.02.2018 04:00:00 -13,4 -14,8 28 15 41 22 E
23.02.2018 03:00:00 -13,2 -14,6 27 15 41 22 E
23.02.2018 02:00:00 -12,6 -13,9 27 15 43 23 E
23.02.2018 01:00:00 -11,7 -13,0 25 13 38 21 E
23.02.2018 00:00:00 -8,0 -9,2 19 10 27 15 ENE
22.02.2018 23:00:00 -6,2 -6,9 7 4 14 8 NE
22.02.2018 22:00:00 -6,1 -6,8 11 6 15 8 W
22.02.2018 21:00:00 -6,2 -6,9 12 6 16 9 WNW
22.02.2018 20:00:00 -6,3 -7,0 10 6 14 7 N
22.02.2018 19:00:00 -5,9 -6,6 6 3 13 7 ENE
22.02.2018 18:00:00 -5,8 -6,5 9 5 24 13 WNW
22.02.2018 17:00:00 -5,7 -6,4 14 8 20 11 WNW
22.02.2018 16:00:00 -6,2 -6,9 17 9 21 12 NNW
22.02.2018 15:00:00 -5,7 -6,4 13 7 17 9 NNE
22.02.2018 14:00:00 -4,6 -5,0 9 5 14 8 N
22.02.2018 13:00:00 -4,9 -5,4 8 4 11 6 NNW
22.02.2018 12:00:00 -5,7 -6,4 6 3 13 7 W
22.02.2018 11:00:00 -6,0 -6,7 10 6 14 8 WSW
22.02.2018 10:00:00 -6,5 -7,2 11 6 14 8 WNW
22.02.2018 09:00:00 -6,9 -7,6 11 6 14 8 NNW
22.02.2018 08:00:00 -7,3 -8,1 10 5 15 8 NW
22.02.2018 07:00:00 -7,5 -8,3 9 5 14 8 NW
22.02.2018 06:00:00 -7,6 -8,4 7 4 17 9 N
22.02.2018 05:00:00 -7,6 -8,4 16 9 26 14 WNW
22.02.2018 04:00:00 -7,8 -8,6 13 7 24 13 W
22.02.2018 03:00:00 -8,1 -8,9 20 11 27 15 WNW
22.02.2018 02:00:00 -9,3 -10,1 17 9 27 15 WNW
22.02.2018 01:00:00 -10,9 -11,9 16 9 20 11 WNW
22.02.2018 00:00:00 -11,8 -13,0 13 7 21 11 WNW
21.02.2018 23:00:00 -12,9 -14,2 15 8 19 10 W
21.02.2018 22:00:00 -13,9 -15,3 14 7 18 10 WNW
21.02.2018 21:00:00 -14,6 -16,0 9 5 19 11 W
21.02.2018 20:00:00 -15,2 -16,7 17 9 22 12 SW
21.02.2018 19:00:00 -15,4 -17,1 14 8 22 12 SSW
21.02.2018 18:00:00 -15,3 -17,0 20 11 26 14 SSW
21.02.2018 17:00:00 -14,9 -16,4 22 12 27 14 SSW
21.02.2018 16:00:00 -14,4 -15,9 23 13 29 16 SSW
21.02.2018 15:00:00 -14,2 -15,7 25 13 29 16 S
21.02.2018 14:00:00 -14,3 -15,8 28 15 31 17 S
21.02.2018 13:00:00 -14,9 -16,6 23 12 30 16 S
21.02.2018 12:00:00 -15,5 -17,2 26 14 35 19 S
21.02.2018 11:00:00 -16,1 -17,9 28 15 37 20 S
21.02.2018 10:00:00 -16,5 -18,3 26 14 39 21 SSE
21.02.2018 09:00:00 -17,3 -19,2 27 15 36 19 SSE
21.02.2018 08:00:00 -17,5 -19,4 27 15 36 20 SSE
21.02.2018 07:00:00 -17,4 -19,3 29 16 37 20 SSE
21.02.2018 06:00:00 -17,3 -19,1 26 14 32 17 SSE
21.02.2018 05:00:00 -17,2 -19,0 28 15 35 19 SSE
21.02.2018 04:00:00 -17,0 -18,8 32 17 35 19 SSE
21.02.2018 03:00:00 -16,8 -18,6 23 13 31 17 SSE
21.02.2018 02:00:00 -16,6 -18,4 23 13 29 16 SSE
21.02.2018 01:00:00 -16,4 -18,2 27 15 29 16 SE
21.02.2018 00:00:00 -16,1 -17,8 27 15 32 17 SE
20.02.2018 23:00:00 -16,1 -17,8 29 15 34 18 SE
20.02.2018 22:00:00 -16,0 -17,7 27 15 34 18 SE
20.02.2018 21:00:00 -15,7 -17,4 29 15 31 17 SE
20.02.2018 20:00:00 -15,2 -16,9 21 11 27 15 SSE
20.02.2018 19:00:00 -14,6 -16,1 21 12 27 15 SE
20.02.2018 18:00:00 -14,1 -15,7 22 12 28 15 SE
20.02.2018 17:00:00 -13,5 -14,9 24 13 30 16 SE
20.02.2018 16:00:00 -13,2 -14,6 23 13 29 16 SE
20.02.2018 15:00:00 -13,6 -15,2 26 14 29 16 SE
20.02.2018 14:00:00 -13,5 -15,1 27 15 34 18 SSE
20.02.2018 13:00:00 -13,3 -14,9 27 15 33 18 SSE
20.02.2018 12:00:00 -13,6 -15,2 22 12 32 18 SSE
20.02.2018 11:00:00 -14,2 -15,7 32 17 35 19 SSE
20.02.2018 10:00:00 -14,6 -16,1 32 17 36 20 SSE
20.02.2018 09:00:00 -15,5 -17,2 29 16 37 20 SSE
20.02.2018 08:00:00 -15,5 -17,2 29 16 35 19 SSE
20.02.2018 07:00:00 -15,0 -16,7 29 15 35 19 S
20.02.2018 06:00:00 -14,7 -16,2 28 15 32 17 SSE
20.02.2018 05:00:00 -14,6 -16,1 20 11 36 20 SSE
20.02.2018 04:00:00 -14,6 -16,1 21 11 31 17 SSE
20.02.2018 03:00:00 -14,3 -15,8 26 14 35 19 SSE
20.02.2018 02:00:00 -13,9 -15,5 32 18 37 20 SSE
20.02.2018 01:00:00 -13,2 -14,6 27 15 33 18 SSE
20.02.2018 00:00:00 -13,1 -14,5 19 10 29 16 SSE
19.02.2018 23:00:00 -13,1 -14,5 20 11 28 15 SSE
19.02.2018 22:00:00 -13,0 -14,4 18 10 23 12 SSE
19.02.2018 21:00:00 -12,7 -14,0 17 9 27 14 SSE
19.02.2018 20:00:00 -11,9 -13,2 16 8 21 11 SE
19.02.2018 19:00:00 -11,5 -12,8 19 10 22 12 SE
19.02.2018 18:00:00 -11,1 -12,3 23 13 27 14 ESE
19.02.2018 17:00:00 -10,6 -11,8 22 12 31 17 ESE
19.02.2018 16:00:00 -9,9 -11,0 29 16 31 17 ESE
19.02.2018 15:00:00 -9,7 -10,8 26 14 29 15 SE
19.02.2018 14:00:00 -10,1 -11,1 23 12 27 15 ESE
19.02.2018 13:00:00 -10,2 -11,2 26 14 31 17 E
19.02.2018 12:00:00 -9,7 -10,8 26 14 35 19 E
19.02.2018 11:00:00 -9,6 -10,7 19 11 27 15 ESE
19.02.2018 10:00:00 -9,8 -10,9 22 12 27 14 SE
19.02.2018 09:00:00 -9,9 -11,0 21 12 25 13 SE
19.02.2018 08:00:00 -9,9 -11,0 22 12 30 16 ESE
19.02.2018 07:00:00 -9,9 -11,0 23 12 27 15 ESE
19.02.2018 06:00:00 -9,9 -11,0 11 6 24 13 ENE

tt = Température de l'air
td = dewpoint
ff = Vitesse du vent
fx = gusts
dd = Direction du vent

stations d'obs. à proximité